Time;durP1;ratioP1;P1;durP2;ratioP2;P2;SDS_P1;SDS_P2;PMS_P1;PMS_P2;Temp;Humidity;BMP_temperature;BMP_pressure;BME280_temperature;BME280_humidity;BME280_pressure;Samples;Min_cycle;Max_cycle;Signal;HPM_P1;HPM_P2
2021/08/08 00:01:24;;;;;;;4.57;2.00;;;;;;;;;;5097098;28;20267;-65
2021/08/08 00:03:54;;;;;;;3.50;2.20;;;;;;;;;;5097463;28;20250;-65
2021/08/08 00:06:38;;;;;;;4.70;1.80;;;;;;;;;;5089109;28;20193;-66
2021/08/08 00:09:06;;;;;;;5.90;1.80;;;;;;;;;;5097589;28;20216;-66
2021/08/08 00:11:36;;;;;;;3.03;1.97;;;;;;;;;;5098324;28;20263;-65
2021/08/08 00:14:04;;;;;;;4.07;2.27;;;;;;;;;;5099534;28;20208;-66
2021/08/08 00:16:32;;;;;;;1.80;1.63;;;;;;;;;;5097628;28;20564;-65
2021/08/08 00:19:00;;;;;;;3.23;2.40;;;;;;;;;;5097578;28;20229;-66
2021/08/08 00:21:28;;;;;;;3.67;2.33;;;;;;;;;;5097259;28;20260;-65
2021/08/08 00:23:56;;;;;;;3.10;2.23;;;;;;;;;;5097105;28;20691;-65
2021/08/08 00:26:24;;;;;;;6.77;2.40;;;;;;;;;;5097432;28;20216;-65
2021/08/08 00:28:53;;;;;;;6.13;2.20;;;;;;;;;;5097482;28;20288;-65
2021/08/08 00:31:24;;;;;;;3.33;2.00;;;;;;;;;;5100877;28;20260;-63
2021/08/08 00:33:52;;;;;;;6.80;2.27;;;;;;;;;;5101174;28;20205;-63
2021/08/08 00:36:20;;;;;;;3.90;1.97;;;;;;;;;;5101405;28;20208;-62
2021/08/08 00:38:48;;;;;;;4.63;1.73;;;;;;;;;;5101564;28;20215;-63
2021/08/08 00:41:16;;;;;;;4.13;2.10;;;;;;;;;;5101093;28;20226;-63
2021/08/08 00:43:44;;;;;;;6.13;2.50;;;;;;;;;;5101531;28;20205;-65
2021/08/08 00:46:14;;;;;;;3.13;2.07;;;;;;;;;;5100984;28;20202;-65
2021/08/08 00:48:42;;;;;;;3.60;2.00;;;;;;;;;;5101060;28;20237;-65
2021/08/08 00:51:10;;;;;;;2.87;2.30;;;;;;;;;;5100967;28;20679;-65
2021/08/08 00:53:38;;;;;;;6.30;2.23;;;;;;;;;;5101193;28;20206;-65
2021/08/08 00:56:06;;;;;;;2.43;2.23;;;;;;;;;;5101074;28;20201;-65
2021/08/08 00:58:34;;;;;;;2.37;2.10;;;;;;;;;;5101019;28;20205;-65
2021/08/08 01:01:02;;;;;;;9.53;2.43;;;;;;;;;;5100490;28;20221;-65
2021/08/08 01:03:32;;;;;;;2.23;2.03;;;;;;;;;;5100578;28;20227;-65
2021/08/08 01:06:03;;;;;;;2.80;2.17;;;;;;;;;;5100783;28;20205;-65
2021/08/08 01:08:31;;;;;;;1.97;1.87;;;;;;;;;;5100651;28;20228;-65
2021/08/08 01:11:00;;;;;;;1.87;1.77;;;;;;;;;;5100543;28;20208;-65
2021/08/08 01:13:28;;;;;;;3.90;2.53;;;;;;;;;;5100323;28;20224;-65
2021/08/08 01:15:56;;;;;;;2.67;2.30;;;;;;;;;;5100207;28;20550;-65
2021/08/08 01:18:25;;;;;;;4.50;1.70;;;;;;;;;;5100241;28;20241;-65
2021/08/08 01:20:54;;;;;;;4.43;2.10;;;;;;;;;;5100515;28;20222;-65
2021/08/08 01:23:24;;;;;;;2.20;1.40;;;;;;;;;;5100141;28;20229;-65
2021/08/08 01:25:53;;;;;;;2.47;1.97;;;;;;;;;;5100421;28;20201;-65
2021/08/08 01:28:22;;;;;;;3.23;1.30;;;;;;;;;;5100583;28;20273;-65
2021/08/08 01:30:49;;;;;;;2.53;1.53;;;;;;;;;;5100250;28;20201;-65
2021/08/08 01:33:17;;;;;;;6.03;1.80;;;;;;;;;;5100196;28;20237;-65
2021/08/08 01:35:45;;;;;;;6.10;2.20;;;;;;;;;;5100404;28;20211;-66
2021/08/08 01:38:13;;;;;;;3.17;1.37;;;;;;;;;;5100441;28;20284;-66
2021/08/08 01:40:49;;;;;;;3.80;1.47;;;;;;;;;;5098858;28;20207;-65
2021/08/08 01:43:21;;;;;;;3.57;1.40;;;;;;;;;;5099967;28;20703;-65
2021/08/08 01:45:49;;;;;;;3.03;1.77;;;;;;;;;;5099949;28;20206;-65
2021/08/08 01:48:18;;;;;;;2.87;1.73;;;;;;;;;;5099761;28;20213;-65
2021/08/08 01:50:46;;;;;;;3.30;1.50;;;;;;;;;;5100197;28;20205;-65
2021/08/08 01:53:15;;;;;;;3.87;1.80;;;;;;;;;;5100175;28;20229;-65
2021/08/08 01:55:43;;;;;;;5.43;2.23;;;;;;;;;;5099632;28;20576;-65
2021/08/08 01:58:11;;;;;;;3.53;2.13;;;;;;;;;;5100040;28;20205;-63
2021/08/08 02:00:41;;;;;;;2.90;2.53;;;;;;;;;;5099338;28;20206;-63
2021/08/08 02:03:09;;;;;;;3.73;2.30;;;;;;;;;;5099392;28;20241;-63
2021/08/08 02:05:37;;;;;;;4.37;2.80;;;;;;;;;;5099486;28;20673;-63
2021/08/08 02:08:06;;;;;;;3.30;2.63;;;;;;;;;;5099243;28;20220;-63
2021/08/08 02:10:33;;;;;;;3.67;2.17;;;;;;;;;;5099248;28;20225;-63
2021/08/08 02:13:01;;;;;;;5.00;1.87;;;;;;;;;;5099552;28;20232;-64
2021/08/08 02:15:29;;;;;;;2.73;1.90;;;;;;;;;;5099213;28;20293;-64
2021/08/08 02:17:59;;;;;;;4.70;2.83;;;;;;;;;;5099096;28;20210;-63
2021/08/08 02:20:27;;;;;;;4.87;2.27;;;;;;;;;;5099495;28;20201;-63
2021/08/08 02:22:55;;;;;;;5.77;2.37;;;;;;;;;;5099195;28;20233;-64
2021/08/08 02:25:23;;;;;;;2.77;2.00;;;;;;;;;;5099150;28;20213;-64
2021/08/08 02:27:50;;;;;;;4.07;2.17;;;;;;;;;;5099178;28;20209;-63
2021/08/08 02:30:19;;;;;;;3.73;2.43;;;;;;;;;;5098746;28;20657;-63
2021/08/08 02:32:47;;;;;;;3.13;1.90;;;;;;;;;;5099120;28;20224;-64
2021/08/08 02:35:16;;;;;;;2.17;1.80;;;;;;;;;;5098931;28;20210;-64
2021/08/08 02:37:44;;;;;;;4.07;2.20;;;;;;;;;;5098719;28;20214;-63
2021/08/08 02:40:12;;;;;;;5.97;2.30;;;;;;;;;;5099089;28;20255;-63
2021/08/08 02:42:40;;;;;;;2.17;2.00;;;;;;;;;;5098336;28;20237;-63
2021/08/08 02:45:09;;;;;;;3.40;2.30;;;;;;;;;;5098496;28;20209;-62
2021/08/08 02:47:37;;;;;;;4.23;2.27;;;;;;;;;;5098650;28;20209;-63
2021/08/08 02:50:06;;;;;;;2.97;2.43;;;;;;;;;;5098863;28;20209;-63
2021/08/08 02:52:40;;;;;;;4.37;2.17;;;;;;;;;;5098107;28;20228;-62
2021/08/08 02:55:09;;;;;;;2.67;2.03;;;;;;;;;;5098838;28;20209;-63
2021/08/08 02:57:37;;;;;;;2.73;1.93;;;;;;;;;;5098475;28;20209;-63
2021/08/08 03:00:06;;;;;;;4.43;2.50;;;;;;;;;;5097969;28;20209;-63
2021/08/08 03:02:34;;;;;;;2.50;1.97;;;;;;;;;;5098216;28;20230;-63
2021/08/08 03:05:02;;;;;;;2.23;1.93;;;;;;;;;;5098548;28;20205;-63
2021/08/08 03:07:30;;;;;;;4.33;2.10;;;;;;;;;;5098112;28;20653;-63
2021/08/08 03:09:59;;;;;;;2.20;1.97;;;;;;;;;;5098488;28;20202;-63
2021/08/08 03:12:27;;;;;;;1.67;1.57;;;;;;;;;;5097931;28;20324;-65
2021/08/08 03:14:55;;;;;;;2.37;1.70;;;;;;;;;;5097864;28;20227;-65
2021/08/08 03:17:23;;;;;;;2.23;1.67;;;;;;;;;;5098042;28;20705;-65
2021/08/08 03:19:51;;;;;;;4.20;1.93;;;;;;;;;;5098023;28;20291;-66
2021/08/08 03:22:19;;;;;;;3.90;1.83;;;;;;;;;;5098079;28;20317;-65
2021/08/08 03:24:47;;;;;;;2.30;1.80;;;;;;;;;;5097931;28;20252;-63
2021/08/08 03:27:17;;;;;;;3.13;2.07;;;;;;;;;;5098252;28;20668;-63
2021/08/08 03:29:45;;;;;;;6.13;2.33;;;;;;;;;;5097868;28;20209;-63
2021/08/08 03:32:12;;;;;;;4.93;2.03;;;;;;;;;;5097923;28;20717;-64
2021/08/08 03:34:40;;;;;;;2.27;2.00;;;;;;;;;;5097890;28;20287;-64
2021/08/08 03:37:08;;;;;;;4.63;2.10;;;;;;;;;;5098100;28;20288;-64
2021/08/08 03:39:36;;;;;;;2.07;1.97;;;;;;;;;;5097955;28;20202;-64
2021/08/08 03:42:05;;;;;;;4.20;2.13;;;;;;;;;;5097552;28;20237;-65
2021/08/08 03:44:35;;;;;;;3.90;2.00;;;;;;;;;;5097781;28;20288;-65
2021/08/08 03:47:03;;;;;;;4.17;2.10;;;;;;;;;;5097914;28;20212;-64
2021/08/08 03:49:32;;;;;;;3.57;2.00;;;;;;;;;;5097926;28;20228;-65
2021/08/08 03:52:00;;;;;;;3.03;2.20;;;;;;;;;;5097706;28;20233;-64
2021/08/08 03:54:28;;;;;;;5.03;2.50;;;;;;;;;;5097856;28;20209;-65
2021/08/08 03:56:56;;;;;;;3.00;2.17;;;;;;;;;;5097899;28;20210;-64
2021/08/08 03:59:24;;;;;;;4.67;2.20;;;;;;;;;;5097207;28;20215;-64
2021/08/08 04:01:53;;;;;;;2.73;2.53;;;;;;;;;;5097674;28;20225;-65
2021/08/08 04:04:21;;;;;;;2.40;1.73;;;;;;;;;;5096996;28;20202;-64
2021/08/08 04:06:49;;;;;;;3.37;1.77;;;;;;;;;;5098556;28;20215;-64
2021/08/08 04:09:17;;;;;;;3.10;1.90;;;;;;;;;;5098856;28;20244;-64
2021/08/08 04:11:45;;;;;;;3.67;3.00;;;;;;;;;;5097703;28;20225;-64
2021/08/08 04:14:13;;;;;;;5.20;2.70;;;;;;;;;;5097026;28;20258;-64
2021/08/08 04:16:41;;;;;;;3.13;2.20;;;;;;;;;;5097207;28;20213;-64
2021/08/08 04:19:10;;;;;;;6.50;1.93;;;;;;;;;;5097277;28;20205;-64
2021/08/08 04:21:38;;;;;;;4.70;2.50;;;;;;;;;;5096961;28;20251;-64
2021/08/08 04:24:07;;;;;;;4.30;2.70;;;;;;;;;;5097208;28;20244;-64
2021/08/08 04:26:35;;;;;;;2.40;2.20;;;;;;;;;;5097410;28;20289;-64
2021/08/08 04:29:03;;;;;;;8.40;2.40;;;;;;;;;;5096981;28;20201;-64
2021/08/08 04:31:31;;;;;;;4.50;2.47;;;;;;;;;;5096831;28;20225;-64
2021/08/08 04:33:59;;;;;;;3.87;2.83;;;;;;;;;;5097224;28;20208;-65
2021/08/08 04:36:28;;;;;;;2.30;2.00;;;;;;;;;;5097158;28;20219;-64
2021/08/08 04:38:56;;;;;;;5.80;2.03;;;;;;;;;;5097051;28;20695;-65
2021/08/08 04:41:24;;;;;;;5.30;2.40;;;;;;;;;;5096750;28;20232;-64
2021/08/08 04:43:52;;;;;;;7.03;3.00;;;;;;;;;;5097248;28;20689;-64
2021/08/08 04:46:19;;;;;;;6.13;1.97;;;;;;;;;;5096914;28;20269;-64
2021/08/08 04:48:48;;;;;;;3.53;1.80;;;;;;;;;;5096944;28;20241;-65
2021/08/08 04:51:16;;;;;;;5.67;2.33;;;;;;;;;;5096822;28;20565;-64
2021/08/08 04:53:45;;;;;;;2.87;2.53;;;;;;;;;;5097157;28;20206;-64
2021/08/08 04:56:13;;;;;;;4.07;1.83;;;;;;;;;;5097074;28;20695;-64
2021/08/08 04:58:41;;;;;;;3.73;2.10;;;;;;;;;;5097033;28;20206;-64
2021/08/08 05:01:09;;;;;;;4.93;2.40;;;;;;;;;;5096693;28;20210;-64
2021/08/08 05:03:37;;;;;;;3.80;2.57;;;;;;;;;;5096927;28;20229;-64
2021/08/08 05:06:06;;;;;;;6.97;4.00;;;;;;;;;;5096853;28;20321;-64
2021/08/08 05:08:33;;;;;;;4.00;2.50;;;;;;;;;;5097151;28;20213;-65
2021/08/08 05:11:03;;;;;;;6.27;2.27;;;;;;;;;;5097103;28;20215;-65
2021/08/08 05:13:31;;;;;;;5.23;2.10;;;;;;;;;;5096664;28;20671;-64
2021/08/08 05:15:59;;;;;;;6.03;3.27;;;;;;;;;;5098144;28;20202;-64
2021/08/08 05:18:27;;;;;;;4.80;3.40;;;;;;;;;;5100315;28;20240;-64
2021/08/08 05:20:55;;;;;;;5.30;2.50;;;;;;;;;;5100729;28;20220;-64
2021/08/08 05:23:23;;;;;;;4.30;2.67;;;;;;;;;;5100068;28;20237;-64
2021/08/08 05:25:55;;;;;;;5.07;2.50;;;;;;;;;;5100468;28;20205;-65
2021/08/08 05:28:25;;;;;;;5.10;2.63;;;;;;;;;;5100517;28;20205;-64
2021/08/08 05:30:53;;;;;;;5.50;2.90;;;;;;;;;;5100432;28;20209;-64
2021/08/08 05:33:21;;;;;;;4.67;3.33;;;;;;;;;;5100556;28;20221;-65
2021/08/08 05:35:51;;;;;;;4.03;3.33;;;;;;;;;;5100522;28;20202;-64
2021/08/08 05:38:19;;;;;;;5.67;2.33;;;;;;;;;;5100133;28;20292;-64
2021/08/08 05:40:47;;;;;;;5.40;2.60;;;;;;;;;;5100429;28;20216;-64
2021/08/08 05:43:15;;;;;;;10.63;2.87;;;;;;;;;;5099706;28;20248;-65
2021/08/08 05:45:47;;;;;;;3.20;2.90;;;;;;;;;;5100130;28;20205;-64
2021/08/08 05:48:15;;;;;;;3.87;2.27;;;;;;;;;;5099783;28;20550;-64
2021/08/08 05:50:43;;;;;;;3.87;2.17;;;;;;;;;;5099739;28;20205;-64
2021/08/08 05:53:11;;;;;;;5.87;2.53;;;;;;;;;;5100057;28;20222;-64
2021/08/08 05:55:44;;;;;;;6.83;2.67;;;;;;;;;;5099619;28;20205;-64
2021/08/08 05:58:12;;;;;;;5.70;2.37;;;;;;;;;;5099776;28;20545;-64
2021/08/08 06:00:39;;;;;;;4.27;2.20;;;;;;;;;;5099461;28;20208;-64
2021/08/08 06:03:09;;;;;;;4.37;2.47;;;;;;;;;;5099435;28;20750;-64
2021/08/08 06:05:38;;;;;;;7.73;2.63;;;;;;;;;;5099595;28;20209;-64
2021/08/08 06:08:06;;;;;;;3.23;2.20;;;;;;;;;;5099478;28;20205;-65
2021/08/08 06:10:34;;;;;;;5.70;2.30;;;;;;;;;;5099322;28;20207;-64
2021/08/08 06:13:02;;;;;;;2.50;2.23;;;;;;;;;;5099488;28;20227;-64
2021/08/08 06:15:30;;;;;;;4.07;2.63;;;;;;;;;;5099142;28;20212;-65
2021/08/08 06:17:58;;;;;;;6.07;3.23;;;;;;;;;;5098970;28;20584;-64
2021/08/08 06:20:27;;;;;;;5.53;2.70;;;;;;;;;;5099505;28;20204;-65
2021/08/08 06:22:55;;;;;;;4.07;2.77;;;;;;;;;;5099482;28;20241;-64
2021/08/08 06:25:23;;;;;;;6.33;2.97;;;;;;;;;;5099180;28;20312;-64
2021/08/08 06:27:51;;;;;;;6.20;3.40;;;;;;;;;;5098625;28;20205;-64
2021/08/08 06:30:20;;;;;;;4.77;2.50;;;;;;;;;;5098749;28;20205;-64
2021/08/08 06:32:48;;;;;;;5.27;2.83;;;;;;;;;;5098958;28;20229;-65
2021/08/08 06:35:16;;;;;;;5.57;2.50;;;;;;;;;;5099020;28;20240;-65
2021/08/08 06:37:45;;;;;;;7.93;2.90;;;;;;;;;;5099055;28;20206;-64
2021/08/08 06:40:14;;;;;;;4.17;2.40;;;;;;;;;;5098962;28;20664;-65
2021/08/08 06:42:42;;;;;;;5.70;3.17;;;;;;;;;;5098582;28;20241;-64
2021/08/08 06:45:11;;;;;;;3.90;2.60;;;;;;;;;;5098604;28;20228;-65
2021/08/08 06:47:39;;;;;;;13.17;3.63;;;;;;;;;;5098630;28;20763;-65
2021/08/08 06:50:07;;;;;;;4.17;2.93;;;;;;;;;;5099157;28;20673;-64
2021/08/08 06:52:34;;;;;;;3.87;2.07;;;;;;;;;;5098715;28;20689;-64
2021/08/08 06:55:04;;;;;;;6.53;2.93;;;;;;;;;;5098926;28;20205;-65
2021/08/08 06:57:32;;;;;;;5.33;2.30;;;;;;;;;;5098530;28;20567;-64
2021/08/08 07:00:00;;;;;;;5.37;2.23;;;;;;;;;;5098461;28;20673;-64
2021/08/08 07:02:28;;;;;;;5.70;2.10;;;;;;;;;;5098234;28;20700;-64
2021/08/08 07:04:56;;;;;;;4.03;2.13;;;;;;;;;;5098637;28;20572;-65
2021/08/08 07:07:24;;;;;;;5.70;2.17;;;;;;;;;;5098595;28;20206;-65
2021/08/08 07:09:52;;;;;;;4.43;2.60;;;;;;;;;;5098407;28;20609;-65
2021/08/08 07:12:22;;;;;;;3.07;1.93;;;;;;;;;;5098420;28;20231;-64
2021/08/08 07:14:50;;;;;;;6.77;1.90;;;;;;;;;;5098173;28;20203;-65
2021/08/08 07:17:18;;;;;;;5.00;2.00;;;;;;;;;;5098334;28;20288;-64
2021/08/08 07:19:46;;;;;;;4.60;2.30;;;;;;;;;;5098299;28;20202;-65
2021/08/08 07:22:15;;;;;;;4.90;2.03;;;;;;;;;;5098135;28;20587;-65
2021/08/08 07:24:44;;;;;;;8.03;2.10;;;;;;;;;;5097887;28;20226;-64
2021/08/08 07:27:12;;;;;;;3.60;2.10;;;;;;;;;;5098307;28;20288;-64
2021/08/08 07:29:41;;;;;;;4.97;2.63;;;;;;;;;;5098004;28;20649;-64
2021/08/08 07:32:10;;;;;;;3.57;2.20;;;;;;;;;;5098049;28;20229;-64
2021/08/08 07:34:38;;;;;;;2.33;2.07;;;;;;;;;;5097970;28;20265;-64
2021/08/08 07:37:06;;;;;;;4.23;2.00;;;;;;;;;;5098158;28;20206;-64
2021/08/08 07:39:34;;;;;;;5.90;2.10;;;;;;;;;;5098058;28;20217;-64
2021/08/08 07:42:02;;;;;;;2.77;1.83;;;;;;;;;;5097701;28;20700;-64
2021/08/08 07:44:30;;;;;;;2.63;1.40;;;;;;;;;;5097695;28;20264;-65
2021/08/08 07:47:00;;;;;;;4.40;1.53;;;;;;;;;;5097929;28;20219;-64
2021/08/08 07:49:28;;;;;;;3.87;1.60;;;;;;;;;;5097814;28;20216;-65
2021/08/08 07:51:56;;;;;;;5.93;2.30;;;;;;;;;;5097866;28;20232;-65
2021/08/08 07:54:24;;;;;;;2.63;1.30;;;;;;;;;;5097488;28;20202;-65
2021/08/08 07:56:52;;;;;;;5.87;1.33;;;;;;;;;;5097879;28;20237;-64
2021/08/08 07:59:19;;;;;;;3.27;1.50;;;;;;;;;;5097557;28;20218;-63
2021/08/08 08:01:47;;;;;;;2.60;1.50;;;;;;;;;;5097495;28;20254;-64
2021/08/08 08:04:19;;;;;;;4.57;2.17;;;;;;;;;;5098721;28;20207;-64
2021/08/08 08:06:48;;;;;;;3.03;1.80;;;;;;;;;;5099145;28;20206;-65
2021/08/08 08:09:16;;;;;;;5.07;1.90;;;;;;;;;;5098352;28;20272;-65
2021/08/08 08:11:44;;;;;;;5.50;2.60;;;;;;;;;;5097767;28;20294;-65
2021/08/08 08:14:12;;;;;;;3.50;1.30;;;;;;;;;;5097398;28;20201;-65
2021/08/08 08:16:40;;;;;;;2.37;1.40;;;;;;;;;;5097456;28;20217;-65
2021/08/08 08:19:08;;;;;;;5.77;1.50;;;;;;;;;;5097572;28;20351;-65
2021/08/08 08:21:38;;;;;;;5.63;1.83;;;;;;;;;;5097631;28;20260;-65
2021/08/08 08:24:06;;;;;;;2.23;1.83;;;;;;;;;;5097805;28;20217;-65
2021/08/08 08:26:34;;;;;;;2.67;1.60;;;;;;;;;;5097192;28;20235;-65
2021/08/08 08:29:02;;;;;;;3.43;1.97;;;;;;;;;;5097181;28;20220;-63
2021/08/08 08:31:30;;;;;;;2.37;1.47;;;;;;;;;;5097170;28;20222;-63
2021/08/08 08:33:58;;;;;;;2.40;1.77;;;;;;;;;;5097439;28;20236;-65
2021/08/08 08:36:26;;;;;;;6.10;2.00;;;;;;;;;;5097434;28;20206;-65
2021/08/08 08:39:00;;;;;;;1.33;1.23;;;;;;;;;;5097529;28;20212;-65
2021/08/08 08:41:30;;;;;;;1.97;1.13;;;;;;;;;;5097009;28;20233;-65
2021/08/08 08:43:59;;;;;;;4.17;2.23;;;;;;;;;;5096956;28;20235;-65
2021/08/08 08:46:27;;;;;;;2.17;1.30;;;;;;;;;;5097018;28;20230;-63
2021/08/08 08:48:56;;;;;;;5.10;1.50;;;;;;;;;;5096977;28;20210;-64
2021/08/08 08:51:27;;;;;;;3.40;1.40;;;;;;;;;;5099998;28;20316;-63
2021/08/08 08:53:55;;;;;;;2.17;1.83;;;;;;;;;;5100990;28;20211;-65
2021/08/08 08:56:25;;;;;;;2.43;1.50;;;;;;;;;;5101031;28;20288;-63
2021/08/08 08:58:53;;;;;;;4.77;1.60;;;;;;;;;;5100665;28;20290;-65
2021/08/08 09:01:21;;;;;;;3.43;0.93;;;;;;;;;;5100948;28;20225;-65
2021/08/08 09:03:49;;;;;;;4.30;1.40;;;;;;;;;;5100942;28;20201;-65
2021/08/08 09:06:17;;;;;;;4.63;1.30;;;;;;;;;;5100650;28;20234;-64
2021/08/08 09:08:45;;;;;;;1.30;1.17;;;;;;;;;;5100642;28;20247;-63
2021/08/08 09:11:13;;;;;;;3.30;1.33;;;;;;;;;;5100431;28;20258;-64
2021/08/08 09:13:55;;;;;;;1.60;1.50;;;;;;;;;;5100488;28;20237;-63
2021/08/08 09:16:23;;;;;;;3.60;1.20;;;;;;;;;;5100442;28;20212;-65
2021/08/08 09:18:52;;;;;;;3.03;1.27;;;;;;;;;;5100271;28;20288;-65
2021/08/08 09:21:20;;;;;;;5.27;1.80;;;;;;;;;;5100603;28;20261;-65
2021/08/08 09:23:55;;;;;;;2.50;1.40;;;;;;;;;;5100674;28;20213;-65
2021/08/08 09:26:30;;;;;;;2.57;1.17;;;;;;;;;;5100646;28;20231;-65
2021/08/08 09:29:07;;;;;;;1.30;1.20;;;;;;;;;;5100280;28;20236;-65
2021/08/08 09:31:39;;;;;;;4.43;1.30;;;;;;;;;;5099846;28;20225;-65
2021/08/08 09:34:07;;;;;;;3.73;1.53;;;;;;;;;;5100217;28;20237;-65
2021/08/08 09:36:42;;;;;;;3.13;1.50;;;;;;;;;;5100378;28;20213;-63
2021/08/08 09:39:10;;;;;;;2.77;1.20;;;;;;;;;;5100241;28;20288;-63
2021/08/08 09:41:38;;;;;;;2.93;1.53;;;;;;;;;;5099898;28;20248;-63
2021/08/08 09:44:09;;;;;;;2.63;1.40;;;;;;;;;;5099899;28;20209;-63
2021/08/08 09:46:37;;;;;;;1.90;1.37;;;;;;;;;;5099974;28;20571;-64
2021/08/08 09:49:10;;;;;;;5.13;1.43;;;;;;;;;;5100087;28;20222;-64
2021/08/08 09:51:48;;;;;;;5.90;1.30;;;;;;;;;;5099878;28;20700;-64
2021/08/08 09:54:16;;;;;;;1.70;1.13;;;;;;;;;;5099556;28;20515;-64
2021/08/08 09:56:44;;;;;;;2.40;1.37;;;;;;;;;;5099998;28;20208;-63
2021/08/08 09:59:13;;;;;;;3.03;1.20;;;;;;;;;;5099524;28;20203;-64
2021/08/08 10:01:41;;;;;;;3.07;1.37;;;;;;;;;;5098478;28;20594;-64
2021/08/08 10:04:09;;;;;;;2.20;1.10;;;;;;;;;;5099766;28;20206;-64
2021/08/08 10:06:37;;;;;;;3.77;1.30;;;;;;;;;;5099840;28;20261;-64
2021/08/08 10:09:07;;;;;;;0.63;0.57;;;;;;;;;;5099574;28;20292;-64
2021/08/08 10:11:35;;;;;;;5.47;1.57;;;;;;;;;;5099276;28;20308;-64
2021/08/08 10:14:03;;;;;;;3.40;1.57;;;;;;;;;;5099187;28;20205;-64
2021/08/08 10:16:36;;;;;;;2.60;1.10;;;;;;;;;;5099537;28;20235;-64
2021/08/08 10:19:04;;;;;;;2.23;1.20;;;;;;;;;;5099221;28;20201;-64
2021/08/08 10:21:33;;;;;;;1.40;1.07;;;;;;;;;;5099632;28;20229;-64
2021/08/08 10:24:02;;;;;;;3.40;1.40;;;;;;;;;;5099337;28;20201;-64
2021/08/08 10:26:31;;;;;;;1.80;1.03;;;;;;;;;;5099347;28;20238;-64
2021/08/08 10:28:59;;;;;;;4.63;1.23;;;;;;;;;;5098997;28;20232;-66
2021/08/08 10:31:28;;;;;;;2.13;1.00;;;;;;;;;;5099185;28;20229;-63
2021/08/08 10:33:58;;;;;;;3.73;1.47;;;;;;;;;;5098995;28;20569;-64
2021/08/08 10:36:26;;;;;;;2.63;1.30;;;;;;;;;;5098985;28;20247;-64
2021/08/08 10:38:55;;;;;;;3.37;1.07;;;;;;;;;;5099345;28;20217;-64
2021/08/08 10:41:23;;;;;;;2.83;1.00;;;;;;;;;;5098918;28;20225;-63
2021/08/08 10:43:51;;;;;;;2.87;1.70;;;;;;;;;;5098864;28;20276;-64
2021/08/08 10:46:19;;;;;;;1.23;0.90;;;;;;;;;;5098879;28;20232;-64
2021/08/08 10:48:48;;;;;;;2.00;1.00;;;;;;;;;;5099062;28;20210;-63
2021/08/08 10:51:20;;;;;;;1.97;1.03;;;;;;;;;;5098975;28;20218;-64
2021/08/08 10:53:59;;;;;;;2.83;1.30;;;;;;;;;;5098918;28;20661;-64
2021/08/08 10:56:38;;;;;;;3.43;1.53;;;;;;;;;;5099023;28;20201;-63
2021/08/08 10:59:12;;;;;;;1.17;0.90;;;;;;;;;;5098403;28;20213;-64
2021/08/08 11:01:40;;;;;;;0.97;0.97;;;;;;;;;;5098547;28;20237;-64
2021/08/08 11:04:08;;;;;;;2.60;1.07;;;;;;;;;;5098735;28;20251;-64
2021/08/08 11:06:38;;;;;;;1.80;0.90;;;;;;;;;;5098710;28;20224;-63
2021/08/08 11:09:06;;;;;;;3.33;1.10;;;;;;;;;;5098729;28;20214;-63
2021/08/08 11:11:35;;;;;;;1.40;1.13;;;;;;;;;;5098474;28;20235;-64
2021/08/08 11:14:11;;;;;;;3.87;1.13;;;;;;;;;;5097821;28;20206;-64
2021/08/08 11:16:39;;;;;;;1.73;0.83;;;;;;;;;;5098361;28;20211;-64
2021/08/08 11:19:07;;;;;;;1.10;1.00;;;;;;;;;;5098531;28;20198;-63
2021/08/08 11:21:35;;;;;;;2.07;1.13;;;;;;;;;;5099858;28;20226;-64
2021/08/08 11:24:05;;;;;;;2.73;1.40;;;;;;;;;;5118849;28;20215;-64
2021/08/08 11:26:33;;;;;;;1.23;1.00;;;;;;;;;;5118574;28;20227;-65
2021/08/08 11:29:02;;;;;;;2.57;0.80;;;;;;;;;;5118599;28;20233;-65
2021/08/08 11:31:31;;;;;;;2.80;1.23;;;;;;;;;;5118005;28;20599;-65
2021/08/08 11:33:59;;;;;;;1.30;0.90;;;;;;;;;;5118647;28;20297;-63
2021/08/08 11:36:28;;;;;;;3.20;1.20;;;;;;;;;;5118257;28;20209;-64
2021/08/08 11:38:57;;;;;;;1.80;1.00;;;;;;;;;;5118733;28;20294;-64
2021/08/08 11:41:26;;;;;;;1.23;0.80;;;;;;;;;;5118618;28;20307;-63
2021/08/08 11:44:08;;;;;;;1.33;1.23;;;;;;;;;;5118142;28;20214;-64
2021/08/08 11:46:37;;;;;;;3.30;0.73;;;;;;;;;;5118260;28;20229;-64
2021/08/08 11:49:20;;;;;;;1.43;0.80;;;;;;;;;;5118037;28;20218;-64
2021/08/08 11:51:58;;;;;;;1.83;0.93;;;;;;;;;;5115291;28;20316;-64
2021/08/08 11:54:27;;;;;;;0.87;0.87;;;;;;;;;;5118272;28;20212;-63
2021/08/08 11:56:56;;;;;;;2.77;1.10;;;;;;;;;;5118032;28;20211;-63
2021/08/08 11:59:27;;;;;;;1.67;1.10;;;;;;;;;;5117630;28;20236;-64
2021/08/08 12:01:58;;;;;;;1.80;1.70;;;;;;;;;;5117959;28;20229;-64
2021/08/08 12:04:31;;;;;;;0.90;0.90;;;;;;;;;;5118121;28;20238;-63
2021/08/08 12:07:00;;;;;;;2.27;1.20;;;;;;;;;;5118422;28;20221;-63
2021/08/08 12:09:28;;;;;;;1.17;1.07;;;;;;;;;;5118601;28;20214;-64
2021/08/08 12:11:57;;;;;;;3.80;1.53;;;;;;;;;;5113592;28;20303;-63
2021/08/08 12:14:33;;;;;;;1.90;1.03;;;;;;;;;;5097564;28;20273;-64
2021/08/08 12:17:02;;;;;;;1.37;1.10;;;;;;;;;;5093675;28;20304;-64
2021/08/08 12:19:31;;;;;;;1.93;1.00;;;;;;;;;;5097126;28;20676;-63
2021/08/08 12:22:04;;;;;;;1.60;1.30;;;;;;;;;;5097274;28;20262;-63
2021/08/08 12:24:33;;;;;;;1.73;1.13;;;;;;;;;;5097038;28;20279;-63
2021/08/08 12:27:02;;;;;;;1.30;0.90;;;;;;;;;;5101127;28;20707;-63
2021/08/08 12:29:32;;;;;;;2.43;1.07;;;;;;;;;;5101293;28;20198;-63
2021/08/08 12:32:08;;;;;;;2.43;1.13;;;;;;;;;;5096929;28;20763;-63
2021/08/08 12:34:36;;;;;;;3.83;2.07;;;;;;;;;;5101368;28;20207;-64
2021/08/08 12:37:06;;;;;;;6.33;1.50;;;;;;;;;;5101354;28;20202;-63
2021/08/08 12:39:34;;;;;;;1.83;1.40;;;;;;;;;;5101422;28;20204;-63
2021/08/08 12:42:04;;;;;;;2.73;1.40;;;;;;;;;;5100886;28;20323;-64
2021/08/08 12:44:33;;;;;;;2.07;1.20;;;;;;;;;;5100609;28;20209;-63
2021/08/08 12:47:02;;;;;;;2.70;1.10;;;;;;;;;;5101256;28;20228;-63
2021/08/08 12:49:33;;;;;;;2.13;1.30;;;;;;;;;;5101105;28;20201;-64
2021/08/08 12:52:01;;;;;;;2.47;1.27;;;;;;;;;;5101121;28;20226;-62
2021/08/08 12:54:29;;;;;;;2.87;1.10;;;;;;;;;;5101198;28;20215;-62
2021/08/08 12:56:57;;;;;;;1.13;1.00;;;;;;;;;;5101189;28;20205;-62
2021/08/08 12:59:26;;;;;;;2.93;1.20;;;;;;;;;;5100706;28;20209;-64
2021/08/08 13:01:55;;;;;;;1.37;1.27;;;;;;;;;;5100661;28;20316;-63
2021/08/08 13:04:23;;;;;;;1.80;0.80;;;;;;;;;;5100650;28;20236;-63
2021/08/08 13:06:51;;;;;;;1.43;0.93;;;;;;;;;;5100519;28;20579;-63
2021/08/08 13:09:19;;;;;;;1.17;1.10;;;;;;;;;;5107561;28;20294;-63
2021/08/08 13:11:47;;;;;;;1.57;1.20;;;;;;;;;;5118040;28;20251;-65
2021/08/08 13:14:15;;;;;;;1.30;1.20;;;;;;;;;;5100835;28;20212;-64
2021/08/08 13:16:44;;;;;;;1.10;1.00;;;;;;;;;;5100317;28;20288;-64
2021/08/08 13:19:12;;;;;;;1.00;0.83;;;;;;;;;;5100797;28;20203;-64
2021/08/08 13:21:40;;;;;;;1.53;1.00;;;;;;;;;;5100292;28;20296;-65
2021/08/08 13:24:08;;;;;;;0.90;0.90;;;;;;;;;;5100351;28;20679;-64
2021/08/08 13:26:36;;;;;;;2.80;1.30;;;;;;;;;;5100677;28;20234;-65
2021/08/08 13:29:04;;;;;;;2.30;1.17;;;;;;;;;;5100263;28;20232;-65
2021/08/08 13:31:32;;;;;;;1.57;0.97;;;;;;;;;;5099985;28;20792;-64
2021/08/08 13:34:01;;;;;;;1.53;1.30;;;;;;;;;;5100194;28;20275;-64
2021/08/08 13:36:29;;;;;;;1.97;1.03;;;;;;;;;;5100163;28;20549;-63
2021/08/08 13:38:58;;;;;;;2.50;1.50;;;;;;;;;;5100422;28;20198;-63
2021/08/08 13:41:25;;;;;;;1.93;1.47;;;;;;;;;;5099778;28;20228;-64
2021/08/08 13:43:54;;;;;;;1.37;1.27;;;;;;;;;;5099602;28;20580;-64
2021/08/08 13:46:21;;;;;;;3.33;1.57;;;;;;;;;;5099766;28;20223;-63
2021/08/08 13:48:49;;;;;;;1.47;1.37;;;;;;;;;;5099772;28;20229;-63
2021/08/08 13:51:19;;;;;;;1.20;1.10;;;;;;;;;;5100035;28;20215;-63
2021/08/08 13:53:47;;;;;;;1.33;1.23;;;;;;;;;;5099924;28;20214;-63
2021/08/08 13:56:15;;;;;;;1.57;1.17;;;;;;;;;;5099941;28;20224;-63
2021/08/08 13:58:43;;;;;;;2.63;1.50;;;;;;;;;;5099471;28;20202;-63
2021/08/08 14:01:11;;;;;;;3.23;1.40;;;;;;;;;;5099644;28;20211;-65
2021/08/08 14:03:39;;;;;;;1.80;1.20;;;;;;;;;;5099560;28;20268;-63
2021/08/08 14:06:07;;;;;;;1.20;1.00;;;;;;;;;;5099722;28;20207;-63
2021/08/08 14:08:36;;;;;;;1.10;0.90;;;;;;;;;;5099765;28;20237;-64
2021/08/08 14:11:05;;;;;;;3.60;1.00;;;;;;;;;;5099570;28;20224;-63
2021/08/08 14:13:33;;;;;;;1.43;1.37;;;;;;;;;;5099337;28;20213;-63
2021/08/08 14:16:01;;;;;;;2.50;1.50;;;;;;;;;;5099471;28;20201;-64
2021/08/08 14:18:29;;;;;;;1.27;1.10;;;;;;;;;;5099097;28;20202;-63
2021/08/08 14:20:57;;;;;;;1.53;1.23;;;;;;;;;;5099507;28;20201;-63
2021/08/08 14:23:25;;;;;;;2.13;1.20;;;;;;;;;;5099435;28;20206;-63
2021/08/08 14:25:55;;;;;;;1.57;1.30;;;;;;;;;;5099087;28;20209;-65
2021/08/08 14:28:23;;;;;;;1.30;1.17;;;;;;;;;;5098696;28;20237;-65
2021/08/08 14:30:51;;;;;;;1.40;0.90;;;;;;;;;;5099497;28;20208;-63
2021/08/08 14:33:19;;;;;;;3.93;1.27;;;;;;;;;;5099054;28;20226;-63
2021/08/08 14:35:47;;;;;;;1.67;1.40;;;;;;;;;;5098856;28;20212;-64
2021/08/08 14:38:15;;;;;;;1.30;1.20;;;;;;;;;;5098959;28;20211;-63
2021/08/08 14:40:43;;;;;;;2.70;1.33;;;;;;;;;;5099073;28;20210;-63
2021/08/08 14:43:12;;;;;;;3.57;1.50;;;;;;;;;;5098796;28;20241;-63
2021/08/08 14:45:40;;;;;;;2.00;1.37;;;;;;;;;;5099000;28;20211;-63
2021/08/08 14:48:08;;;;;;;1.90;1.17;;;;;;;;;;5097946;28;20647;-63
2021/08/08 14:50:36;;;;;;;3.03;1.20;;;;;;;;;;5098995;28;20249;-63
2021/08/08 14:53:04;;;;;;;1.67;1.17;;;;;;;;;;5098433;28;20229;-63